Time;durP1;ratioP1;P1;durP2;ratioP2;P2;SDS_P1;SDS_P2;PMS_P1;PMS_P2;Temp;Humidity;BMP_temperature;BMP_pressure;BME280_temperature;BME280_humidity;BME280_pressure;Samples;Min_cycle;Max_cycle;Signal;HPM_P1;HPM_P2
2022/06/17 00:00:53;;;;;;;9.13;3.90;;;;;;;;;;4854593;29;20042;-64
2022/06/17 00:03:19;;;;;;;5.07;3.70;;;;;;;;;;4856198;29;20447;-64
2022/06/17 00:05:45;;;;;;;5.88;3.80;;;;;;;;;;4856541;29;20037;-64
2022/06/17 00:08:17;;;;;;;9.82;4.07;;;;;;;;;;4858315;29;20048;-64
2022/06/17 00:10:42;;;;;;;6.15;4.20;;;;;;;;;;4855764;29;20037;-64
2022/06/17 00:13:16;;;;;;;6.55;3.65;;;;;;;;;;4859240;29;20056;-64
2022/06/17 00:15:42;;;;;;;8.50;4.43;;;;;;;;;;4857687;29;20090;-64
2022/06/17 00:18:08;;;;;;;6.10;4.07;;;;;;;;;;4858546;29;20041;-64
2022/06/17 00:20:35;;;;;;;6.35;4.20;;;;;;;;;;4854536;29;20041;-65
2022/06/17 00:23:01;;;;;;;5.47;3.80;;;;;;;;;;4858542;29;20117;-64
2022/06/17 00:25:31;;;;;;;6.63;3.90;;;;;;;;;;4856266;29;20044;-64
2022/06/17 00:27:57;;;;;;;10.77;3.97;;;;;;;;;;4858224;29;20037;-64
2022/06/17 00:30:26;;;;;;;6.20;4.43;;;;;;;;;;4857200;29;20109;-64
2022/06/17 00:32:56;;;;;;;6.53;4.10;;;;;;;;;;4857812;29;20046;-64
2022/06/17 00:35:25;;;;;;;7.93;4.22;;;;;;;;;;4855734;29;20030;-64
2022/06/17 00:37:50;;;;;;;7.50;5.03;;;;;;;;;;4859291;29;20041;-64
2022/06/17 00:40:20;;;;;;;5.95;4.18;;;;;;;;;;4855465;29;20049;-63
2022/06/17 00:42:47;;;;;;;6.43;4.40;;;;;;;;;;4859123;29;20038;-64
2022/06/17 00:45:24;;;;;;;7.35;4.45;;;;;;;;;;4857058;29;20041;-62
2022/06/17 00:48:07;;;;;;;7.22;4.63;;;;;;;;;;4858050;29;20041;-63
2022/06/17 00:50:59;;;;;;;5.97;4.22;;;;;;;;;;4857844;29;20625;-63
2022/06/17 00:53:29;;;;;;;6.82;4.45;;;;;;;;;;4858208;29;20067;-64
2022/06/17 00:56:03;;;;;;;7.90;4.90;;;;;;;;;;4856864;29;20036;-63
2022/06/17 00:58:52;;;;;;;7.80;4.68;;;;;;;;;;4858280;29;20398;-63
2022/06/17 01:01:18;;;;;;;8.05;4.60;;;;;;;;;;4855083;29;20056;-63
2022/06/17 01:03:44;;;;;;;6.30;4.50;;;;;;;;;;4856769;29;20042;-63
2022/06/17 01:06:17;;;;;;;6.53;4.28;;;;;;;;;;4853624;29;20037;-64
2022/06/17 01:11:52;;;;;;;6.45;4.82;;;;;;;;;;4858175;29;20518;-63
2022/06/17 01:14:19;;;;;;;7.45;4.78;;;;;;;;;;4857239;29;20033;-63
2022/06/17 01:16:46;;;;;;;7.72;4.43;;;;;;;;;;4861692;29;20037;-63
2022/06/17 01:19:24;;;;;;;6.97;4.90;;;;;;;;;;4859190;29;20454;-63
2022/06/17 01:21:57;;;;;;;9.98;5.45;;;;;;;;;;4862452;29;20037;-64
2022/06/17 01:24:24;;;;;;;6.93;4.90;;;;;;;;;;4859622;29;20089;-64
2022/06/17 01:26:49;;;;;;;9.70;5.38;;;;;;;;;;4861401;29;20088;-63
2022/06/17 01:29:16;;;;;;;6.28;4.60;;;;;;;;;;4859907;29;20479;-63
2022/06/17 01:31:46;;;;;;;7.00;5.20;;;;;;;;;;4861562;29;20063;-63
2022/06/17 01:34:13;;;;;;;7.85;5.22;;;;;;;;;;4857103;29;20467;-64
2022/06/17 01:36:40;;;;;;;9.63;5.30;;;;;;;;;;4861405;29;20034;-64
2022/06/17 01:39:05;;;;;;;8.80;5.30;;;;;;;;;;4858611;29;20061;-64
2022/06/17 01:41:33;;;;;;;7.95;5.05;;;;;;;;;;4860955;29;20049;-64
2022/06/17 01:44:10;;;;;;;8.07;5.72;;;;;;;;;;4859251;29;20057;-64
2022/06/17 01:46:39;;;;;;;8.50;5.55;;;;;;;;;;4860064;29;20037;-64
2022/06/17 01:49:18;;;;;;;7.10;5.22;;;;;;;;;;4858966;29;20060;-64
2022/06/17 01:51:56;;;;;;;7.20;4.95;;;;;;;;;;4861754;29;20117;-64
2022/06/17 01:54:28;;;;;;;8.65;5.50;;;;;;;;;;4858364;29;20075;-63
2022/06/17 01:56:57;;;;;;;7.93;5.10;;;;;;;;;;4865623;29;20061;-64
2022/06/17 01:59:28;;;;;;;7.20;5.47;;;;;;;;;;4860133;29;20068;-63
2022/06/17 02:01:57;;;;;;;7.85;5.20;;;;;;;;;;4858854;29;20064;-64
2022/06/17 02:04:28;;;;;;;8.65;5.10;;;;;;;;;;4858498;29;20037;-64
2022/06/17 02:07:02;;;;;;;6.60;4.82;;;;;;;;;;4861798;29;20463;-64
2022/06/17 02:09:28;;;;;;;7.55;5.13;;;;;;;;;;4858095;29;20069;-64
2022/06/17 02:11:54;;;;;;;7.03;5.45;;;;;;;;;;4861467;29;20072;-64
2022/06/17 02:14:20;;;;;;;6.70;5.18;;;;;;;;;;4858108;29;20057;-63
2022/06/17 02:16:53;;;;;;;8.13;5.40;;;;;;;;;;4860554;29;20065;-64
2022/06/17 02:19:23;;;;;;;9.18;5.03;;;;;;;;;;4859016;29;20040;-63
2022/06/17 02:21:54;;;;;;;6.75;5.18;;;;;;;;;;4860919;29;20424;-64
2022/06/17 02:24:20;;;;;;;9.35;5.07;;;;;;;;;;4859152;29;20097;-63
2022/06/17 02:26:47;;;;;;;7.63;5.05;;;;;;;;;;4860934;29;20030;-64
2022/06/17 02:29:14;;;;;;;8.32;4.82;;;;;;;;;;4858482;29;20074;-64
2022/06/17 02:31:42;;;;;;;7.07;5.38;;;;;;;;;;4858639;29;20030;-64
2022/06/17 02:34:11;;;;;;;7.15;5.13;;;;;;;;;;4858894;29;20037;-64
2022/06/17 02:37:02;;;;;;;9.13;4.88;;;;;;;;;;4860327;29;20751;-64
2022/06/17 02:39:28;;;;;;;7.75;5.03;;;;;;;;;;4855176;29;20040;-64
2022/06/17 02:41:54;;;;;;;6.63;5.30;;;;;;;;;;4861233;29;20053;-64
2022/06/17 02:44:35;;;;;;;11.32;5.32;;;;;;;;;;4859178;29;20045;-63
2022/06/17 02:47:01;;;;;;;9.18;5.40;;;;;;;;;;4860235;29;20037;-65
2022/06/17 02:49:31;;;;;;;7.60;5.40;;;;;;;;;;4859895;29;20089;-64
2022/06/17 02:51:59;;;;;;;8.67;5.60;;;;;;;;;;4859509;29;20029;-64
2022/06/17 02:54:31;;;;;;;7.45;5.38;;;;;;;;;;4857823;29;20038;-63
2022/06/17 02:56:58;;;;;;;7.55;5.28;;;;;;;;;;4859626;29;20045;-64
2022/06/17 02:59:34;;;;;;;8.88;5.20;;;;;;;;;;4860138;29;20048;-63
2022/06/17 03:02:13;;;;;;;6.65;4.90;;;;;;;;;;4858700;29;20053;-64
2022/06/17 03:04:43;;;;;;;8.25;5.65;;;;;;;;;;4859710;29;20045;-64
2022/06/17 03:07:22;;;;;;;7.03;5.07;;;;;;;;;;4858414;29;20041;-63
2022/06/17 03:09:48;;;;;;;7.45;5.53;;;;;;;;;;4859163;29;20037;-64
2022/06/17 03:12:19;;;;;;;8.55;5.18;;;;;;;;;;4859367;29;20037;-64
2022/06/17 03:15:11;;;;;;;8.13;5.20;;;;;;;;;;4859030;29;20089;-64
2022/06/17 03:17:41;;;;;;;6.88;5.10;;;;;;;;;;4859566;29;20045;-64
2022/06/17 03:20:16;;;;;;;8.15;5.45;;;;;;;;;;4856907;29;20037;-64
2022/06/17 03:22:44;;;;;;;7.45;5.35;;;;;;;;;;4859437;29;20033;-63
2022/06/17 03:25:25;;;;;;;8.50;5.43;;;;;;;;;;4854753;29;20052;-64
2022/06/17 03:27:54;;;;;;;6.20;5.05;;;;;;;;;;4860352;29;20089;-63
2022/06/17 03:30:32;;;;;;;6.47;4.75;;;;;;;;;;4852932;29;20492;-63
2022/06/17 03:33:06;;;;;;;8.18;4.97;;;;;;;;;;4860229;29;20033;-63
2022/06/17 03:35:35;;;;;;;8.18;5.50;;;;;;;;;;4854872;29;20112;-64
2022/06/17 03:38:07;;;;;;;7.90;5.68;;;;;;;;;;4860003;29;20033;-65
2022/06/17 03:40:38;;;;;;;8.68;6.05;;;;;;;;;;4856150;29;20124;-64
2022/06/17 03:43:09;;;;;;;10.70;6.10;;;;;;;;;;4858623;29;20470;-64
2022/06/17 03:45:48;;;;;;;9.00;5.85;;;;;;;;;;4859004;29;20085;-64
2022/06/17 03:48:30;;;;;;;9.18;6.53;;;;;;;;;;4858877;29;20407;-65
2022/06/17 03:50:56;;;;;;;9.00;6.22;;;;;;;;;;4859786;29;20030;-63
2022/06/17 03:53:26;;;;;;;10.25;6.22;;;;;;;;;;4857775;29;20128;-63
2022/06/17 03:55:54;;;;;;;10.02;6.75;;;;;;;;;;4858652;29;20045;-65
2022/06/17 03:58:21;;;;;;;8.50;6.65;;;;;;;;;;4853347;29;20038;-64
2022/06/17 04:00:52;;;;;;;10.57;6.43;;;;;;;;;;4853689;29;20140;-64
2022/06/17 04:03:22;;;;;;;10.02;7.05;;;;;;;;;;4852085;29;20161;-64
2022/06/17 04:05:54;;;;;;;12.10;6.85;;;;;;;;;;4853111;29;20040;-63
2022/06/17 04:08:19;;;;;;;13.18;6.65;;;;;;;;;;4858081;29;20065;-64
2022/06/17 04:10:45;;;;;;;10.85;6.95;;;;;;;;;;4855908;29;20374;-63
2022/06/17 04:13:19;;;;;;;15.25;7.35;;;;;;;;;;4859517;29;20467;-64
2022/06/17 04:16:08;;;;;;;10.02;6.68;;;;;;;;;;4855699;29;20169;-64
2022/06/17 04:18:35;;;;;;;9.63;6.75;;;;;;;;;;4858118;29;20041;-64
2022/06/17 04:21:02;;;;;;;10.27;6.78;;;;;;;;;;4859367;29;20033;-64
2022/06/17 04:23:34;;;;;;;11.25;6.95;;;;;;;;;;4858785;29;20178;-63
2022/06/17 04:26:21;;;;;;;9.43;6.60;;;;;;;;;;4839953;29;20112;-64
2022/06/17 04:29:19;;;;;;;10.68;6.45;;;;;;;;;;4855894;29;20037;-64
2022/06/17 04:31:51;;;;;;;12.88;7.05;;;;;;;;;;4838720;29;20131;-63
2022/06/17 04:34:18;;;;;;;9.70;6.68;;;;;;;;;;4857029;29;20041;-64
2022/06/17 04:37:03;;;;;;;11.50;6.43;;;;;;;;;;4858602;29;20117;-63
2022/06/17 04:39:51;;;;;;;8.35;6.40;;;;;;;;;;4856700;29;20040;-63
2022/06/17 04:42:21;;;;;;;10.20;6.15;;;;;;;;;;4857316;29;20065;-58
2022/06/17 04:44:50;;;;;;;11.45;6.80;;;;;;;;;;4858015;29;20118;-58
2022/06/17 04:47:20;;;;;;;9.88;6.50;;;;;;;;;;4858988;29;20035;-59
2022/06/17 04:49:50;;;;;;;9.50;6.50;;;;;;;;;;4861248;29;20049;-59
2022/06/17 04:52:36;;;;;;;8.48;6.35;;;;;;;;;;4862542;29;20029;-59
2022/06/17 04:55:06;;;;;;;8.43;5.68;;;;;;;;;;4844309;29;20534;-59
2022/06/17 04:57:31;;;;;;;8.98;6.38;;;;;;;;;;4844912;29;20528;-59
2022/06/17 05:00:01;;;;;;;10.52;6.10;;;;;;;;;;4862115;29;20138;-59
2022/06/17 05:02:32;;;;;;;9.85;5.72;;;;;;;;;;4861058;29;20474;-58
2022/06/17 05:05:00;;;;;;;7.75;5.80;;;;;;;;;;4862072;29;20037;-57
2022/06/17 05:07:29;;;;;;;9.85;6.30;;;;;;;;;;4860223;29;20041;-58
2022/06/17 05:09:59;;;;;;;8.77;5.75;;;;;;;;;;4862012;29;20470;-58
2022/06/17 05:12:29;;;;;;;8.82;6.32;;;;;;;;;;4861177;29;20044;-58
2022/06/17 05:14:59;;;;;;;10.95;5.93;;;;;;;;;;4861207;29;20044;-58
2022/06/17 05:17:24;;;;;;;7.60;5.70;;;;;;;;;;4861876;29;20044;-58
2022/06/17 05:19:50;;;;;;;11.25;5.68;;;;;;;;;;4861692;29;20030;-58
2022/06/17 05:22:24;;;;;;;10.93;5.35;;;;;;;;;;4861589;29;20048;-60
2022/06/17 05:24:50;;;;;;;6.70;5.50;;;;;;;;;;4860309;29;20092;-58
2022/06/17 05:27:16;;;;;;;7.82;5.68;;;;;;;;;;4860787;29;20454;-60
2022/06/17 05:29:41;;;;;;;14.75;5.93;;;;;;;;;;4860860;29;20107;-58
2022/06/17 05:32:10;;;;;;;8.90;5.70;;;;;;;;;;4861128;29;20091;-58
2022/06/17 05:34:36;;;;;;;17.02;5.90;;;;;;;;;;4860611;29;20038;-58
2022/06/17 05:37:01;;;;;;;9.13;5.53;;;;;;;;;;4860995;29;20037;-58
2022/06/17 05:39:27;;;;;;;8.85;5.20;;;;;;;;;;4861069;29;20045;-58
2022/06/17 05:41:52;;;;;;;9.65;5.35;;;;;;;;;;4859748;29;20124;-60
2022/06/17 05:44:18;;;;;;;9.18;5.35;;;;;;;;;;4858349;29;20037;-56
2022/06/17 05:46:43;;;;;;;8.65;4.70;;;;;;;;;;4861195;29;20045;-59
2022/06/17 05:49:08;;;;;;;8.98;4.40;;;;;;;;;;4861052;29;20045;-59
2022/06/17 05:51:34;;;;;;;8.55;4.30;;;;;;;;;;4860186;29;20648;-58
2022/06/17 05:53:59;;;;;;;7.38;4.03;;;;;;;;;;4861591;29;20034;-60
2022/06/17 05:56:25;;;;;;;6.80;3.85;;;;;;;;;;4860903;29;20041;-59
2022/06/17 05:58:50;;;;;;;7.80;3.92;;;;;;;;;;4860387;29;20037;-59
2022/06/17 06:01:16;;;;;;;8.05;3.75;;;;;;;;;;4859946;29;20491;-59
2022/06/17 06:03:41;;;;;;;6.30;3.70;;;;;;;;;;4860917;29;20072;-59
2022/06/17 06:06:06;;;;;;;7.10;3.95;;;;;;;;;;4860219;29;20033;-59
2022/06/17 06:08:32;;;;;;;6.53;3.53;;;;;;;;;;4875388;29;20041;-59
2022/06/17 06:10:58;;;;;;;7.57;3.70;;;;;;;;;;4860456;29;20478;-59
2022/06/17 06:13:23;;;;;;;8.32;3.95;;;;;;;;;;4861587;29;20478;-59
2022/06/17 06:15:53;;;;;;;8.73;4.10;;;;;;;;;;4859549;29;20108;-59
2022/06/17 06:18:23;;;;;;;7.20;3.58;;;;;;;;;;4861080;29;20447;-59
2022/06/17 06:20:50;;;;;;;6.65;4.00;;;;;;;;;;4860711;29;20087;-52
2022/06/17 06:23:15;;;;;;;7.75;3.50;;;;;;;;;;4861395;29;20052;-59
2022/06/17 06:25:41;;;;;;;7.70;3.83;;;;;;;;;;4842038;29;20037;-59
2022/06/17 06:28:18;;;;;;;10.55;3.70;;;;;;;;;;4861338;29;20029;-59
2022/06/17 06:30:53;;;;;;;8.70;3.50;;;;;;;;;;4859426;29;20037;-58
2022/06/17 06:33:19;;;;;;;8.13;3.47;;;;;;;;;;4860025;29;20037;-59
2022/06/17 06:35:45;;;;;;;6.90;3.47;;;;;;;;;;4859062;29;20050;-59
2022/06/17 06:38:10;;;;;;;7.45;3.20;;;;;;;;;;4861110;29;20041;-60
2022/06/17 06:40:35;;;;;;;8.00;3.35;;;;;;;;;;4859361;29;20037;-60
2022/06/17 06:43:02;;;;;;;8.15;3.20;;;;;;;;;;4861219;29;20033;-59
2022/06/17 06:45:34;;;;;;;6.55;3.28;;;;;;;;;;4860223;29;20070;-58
2022/06/17 06:48:03;;;;;;;7.47;3.20;;;;;;;;;;4860905;29;20044;-58
2022/06/17 06:50:31;;;;;;;7.68;3.10;;;;;;;;;;4860263;29;20049;-58
2022/06/17 06:52:56;;;;;;;8.00;3.22;;;;;;;;;;4859955;29;20070;-59
2022/06/17 06:55:22;;;;;;;5.63;3.08;;;;;;;;;;4859912;29;20399;-56
2022/06/17 06:57:56;;;;;;;7.97;2.92;;;;;;;;;;4860037;29;20498;-57
2022/06/17 07:00:26;;;;;;;4.70;2.70;;;;;;;;;;4860113;29;20529;-59
2022/06/17 07:02:51;;;;;;;6.38;2.70;;;;;;;;;;4853809;29;20399;-60
2022/06/17 07:05:17;;;;;;;6.28;2.55;;;;;;;;;;4859980;29;20041;-57
2022/06/17 07:07:43;;;;;;;30.30;13.65;;;;;;;;;;4859399;29;20038;-59
2022/06/17 07:10:13;;;;;;;3.92;2.60;;;;;;;;;;4858254;29;20030;-59
2022/06/17 07:12:38;;;;;;;6.80;2.88;;;;;;;;;;4854437;29;20391;-55
2022/06/17 07:15:05;;;;;;;4.30;2.20;;;;;;;;;;4843335;29;20093;-56
2022/06/17 07:17:31;;;;;;;6.10;2.78;;;;;;;;;;4860208;29;20065;-51
2022/06/17 07:19:56;;;;;;;4.78;2.35;;;;;;;;;;4858724;29;20376;-55
2022/06/17 07:22:22;;;;;;;8.88;2.30;;;;;;;;;;4858930;29;20418;-57
2022/06/17 07:24:48;;;;;;;4.00;2.40;;;;;;;;;;4859083;29;20033;-58
2022/06/17 07:27:14;;;;;;;8.02;2.40;;;;;;;;;;4858623;29;20041;-56
2022/06/17 07:29:39;;;;;;;5.57;2.53;;;;;;;;;;4859176;29;20424;-60
2022/06/17 07:32:05;;;;;;;6.28;2.70;;;;;;;;;;4860018;29;20033;-58
2022/06/17 07:34:30;;;;;;;3.25;2.20;;;;;;;;;;4859971;29;20034;-57
2022/06/17 07:39:55;;;;;;;4.47;2.30;;;;;;;;;;4858421;29;20051;-60
2022/06/17 07:42:37;;;;;;;5.95;2.50;;;;;;;;;;4859259;29;20033;-59
2022/06/17 07:45:18;;;;;;;4.03;2.40;;;;;;;;;;4858625;29;20064;-54
2022/06/17 07:47:48;;;;;;;3.28;2.15;;;;;;;;;;4857800;29;20084;-59
2022/06/17 07:50:18;;;;;;;3.10;2.30;;;;;;;;;;4859929;29;20513;-58
2022/06/17 07:52:44;;;;;;;3.65;2.28;;;;;;;;;;4858424;29;20072;-55
2022/06/17 07:55:09;;;;;;;5.03;2.50;;;;;;;;;;4858700;29;20141;-60
2022/06/17 07:57:35;;;;;;;6.47;2.50;;;;;;;;;;4858648;29;20040;-54
2022/06/17 08:00:01;;;;;;;4.93;2.30;;;;;;;;;;4855768;29;20446;-54
2022/06/17 08:02:26;;;;;;;6.05;2.63;;;;;;;;;;4857785;29;20118;-53
2022/06/17 08:04:52;;;;;;;5.53;2.72;;;;;;;;;;4858342;29;20041;-52
2022/06/17 08:07:18;;;;;;;4.22;2.85;;;;;;;;;;4873645;29;20033;-52
2022/06/17 08:09:43;;;;;;;6.15;3.15;;;;;;;;;;4858658;29;20444;-49
2022/06/17 08:12:13;;;;;;;4.47;2.60;;;;;;;;;;4859606;29;20055;-49
2022/06/17 08:14:43;;;;;;;8.27;2.83;;;;;;;;;;4859116;29;20407;-55
2022/06/17 08:17:12;;;;;;;5.72;2.80;;;;;;;;;;4858725;29;20044;-51
2022/06/17 08:19:38;;;;;;;5.53;2.72;;;;;;;;;;4858825;29;20086;-56
2022/06/17 08:22:04;;;;;;;5.50;2.95;;;;;;;;;;4858182;29;20033;-60
2022/06/17 08:24:29;;;;;;;5.00;3.10;;;;;;;;;;4865076;29;20068;-54
2022/06/17 08:26:55;;;;;;;6.07;3.03;;;;;;;;;;4864174;29;20033;-58
2022/06/17 08:29:20;;;;;;;8.52;3.00;;;;;;;;;;4865641;29;20037;-59
2022/06/17 08:31:46;;;;;;;4.00;2.67;;;;;;;;;;4864143;29;20076;-60
2022/06/17 08:34:11;;;;;;;4.95;2.40;;;;;;;;;;4879845;29;20542;-59
2022/06/17 08:36:37;;;;;;;11.23;2.75;;;;;;;;;;4862794;29;20069;-59
2022/06/17 08:39:09;;;;;;;6.40;2.65;;;;;;;;;;4864495;29;20041;-58
2022/06/17 08:41:44;;;;;;;7.53;2.70;;;;;;;;;;4866331;29;20129;-59
2022/06/17 08:44:28;;;;;;;5.13;2.70;;;;;;;;;;4864368;29;20041;-58
2022/06/17 08:47:18;;;;;;;5.15;2.50;;;;;;;;;;4864631;29;20077;-58
2022/06/17 08:49:52;;;;;;;6.50;2.80;;;;;;;;;;4863524;29;20033;-60
2022/06/17 08:52:46;;;;;;;6.13;2.80;;;;;;;;;;4864462;29;20033;-59
2022/06/17 08:55:43;;;;;;;18.58;3.40;;;;;;;;;;4862451;29;20033;-56
2022/06/17 08:58:27;;;;;;;4.60;2.33;;;;;;;;;;4859898;29;20505;-59
2022/06/17 09:01:34;;;;;;;6.03;2.55;;;;;;;;;;4864427;29;20045;-59
2022/06/17 09:04:22;;;;;;;4.68;2.40;;;;;;;;;;4861134;29;20640;-49
2022/06/17 09:07:12;;;;;;;3.20;2.30;;;;;;;;;;4856170;29;20415;-58
2022/06/17 09:09:50;;;;;;;11.82;2.55;;;;;;;;;;4865289;29;20262;-59
2022/06/17 09:12:25;;;;;;;6.93;2.55;;;;;;;;;;4865475;29;20048;-59
2022/06/17 09:15:32;;;;;;;10.68;2.53;;;;;;;;;;4864137;29;20515;-59
2022/06/17 09:18:05;;;;;;;5.63;2.55;;;;;;;;;;4848356;29;20045;-59
2022/06/17 09:20:36;;;;;;;4.25;2.45;;;;;;;;;;4865231;29;20110;-60
2022/06/17 09:23:03;;;;;;;4.07;2.40;;;;;;;;;;4863203;29;20029;-59
2022/06/17 09:25:44;;;;;;;4.88;2.50;;;;;;;;;;4865296;29;20041;-59
2022/06/17 09:28:17;;;;;;;5.82;2.20;;;;;;;;;;4865110;29;20416;-60
2022/06/17 09:30:56;;;;;;;5.38;2.60;;;;;;;;;;4864028;29;20037;-62
2022/06/17 09:33:35;;;;;;;4.85;2.70;;;;;;;;;;4864805;29;20090;-59
2022/06/17 09:36:16;;;;;;;3.83;2.40;;;;;;;;;;4861212;29;20132;-58
2022/06/17 09:38:52;;;;;;;5.25;2.40;;;;;;;;;;4861746;29;20465;-60
2022/06/17 09:41:33;;;;;;;7.25;2.40;;;;;;;;;;4862111;29;20463;-60
2022/06/17 09:44:06;;;;;;;6.15;2.50;;;;;;;;;;4860300;29;20054;-59
2022/06/17 09:46:31;;;;;;;5.57;2.50;;;;;;;;;;4861803;29;20041;-58
2022/06/17 09:49:11;;;;;;;4.95;2.33;;;;;;;;;;4860964;29;20037;-60
2022/06/17 09:51:54;;;;;;;8.30;2.50;;;;;;;;;;4861770;29;20037;-60
2022/06/17 09:54:32;;;;;;;5.97;2.42;;;;;;;;;;4859894;29;20039;-54
2022/06/17 09:57:32;;;;;;;4.85;2.13;;;;;;;;;;4858630;29;20030;-56
2022/06/17 10:00:04;;;;;;;5.38;2.30;;;;;;;;;;4839240;29;20132;-56
2022/06/17 10:02:33;;;;;;;3.88;2.17;;;;;;;;;;4860812;29;20511;-64
2022/06/17 10:05:00;;;;;;;3.67;2.35;;;;;;;;;;4860056;29;20096;-63
2022/06/17 10:07:56;;;;;;;6.00;2.30;;;;;;;;;;4860754;29;20177;-64
2022/06/17 10:10:36;;;;;;;3.50;2.42;;;;;;;;;;4823757;29;20052;-64
2022/06/17 10:13:08;;;;;;;;;;;;;;;;;;4861417;29;20093;-63
2022/06/17 10:18:57;;;;;;;4.90;2.10;;;;;;;;;;4861419;29;20085;-64
2022/06/17 10:21:25;;;;;;;3.28;2.30;;;;;;;;;;4860016;29;20061;-63
2022/06/17 10:24:00;;;;;;;3.67;2.00;;;;;;;;;;4851915;29;20053;-63
2022/06/17 10:26:57;;;;;;;4.03;2.15;;;;;;;;;;4860571;29;20053;-63
2022/06/17 10:29:43;;;;;;;6.05;2.55;;;;;;;;;;4861435;29;20055;-63
2022/06/17 10:32:09;;;;;;;4.75;2.30;;;;;;;;;;4859331;29;20033;-64
2022/06/17 10:34:59;;;;;;;3.88;2.10;;;;;;;;;;4858799;29;20069;-63
2022/06/17 10:37:29;;;;;;;3.92;1.88;;;;;;;;;;4845922;29;20129;-62
2022/06/17 10:39:56;;;;;;;4.10;2.20;;;;;;;;;;4845903;29;20030;-63
2022/06/17 10:42:24;;;;;;;2.33;1.75;;;;;;;;;;4860116;29;20041;-62
2022/06/17 10:44:52;;;;;;;3.25;1.90;;;;;;;;;;4859981;29;20037;-63
2022/06/17 10:47:45;;;;;;;5.35;2.00;;;;;;;;;;4860307;29;20033;-63
2022/06/17 10:50:28;;;;;;;4.32;2.22;;;;;;;;;;4843499;29;20041;-61
2022/06/17 10:53:21;;;;;;;3.85;1.88;;;;;;;;;;4859080;29;20098;-62
2022/06/17 10:55:53;;;;;;;2.80;2.00;;;;;;;;;;4860361;29;20057;-63
2022/06/17 10:58:20;;;;;;;3.63;1.90;;;;;;;;;;4860770;29;20038;-62
2022/06/17 11:01:04;;;;;;;4.55;1.90;;;;;;;;;;4860496;29;20060;-63
2022/06/17 11:03:41;;;;;;;6.50;1.90;;;;;;;;;;4860625;29;20049;-62
2022/06/17 11:06:15;;;;;;;3.97;1.95;;;;;;;;;;4859151;29;20294;-64
2022/06/17 11:08:53;;;;;;;3.38;2.08;;;;;;;;;;4860488;29;20040;-63
2022/06/17 11:14:21;;;;;;;4.35;2.13;;;;;;;;;;4860397;29;20447;-62
2022/06/17 11:16:47;;;;;;;2.90;2.13;;;;;;;;;;4843640;29;20029;-62
2022/06/17 11:19:17;;;;;;;4.90;2.22;;;;;;;;;;4857971;29;20044;-62
2022/06/17 11:21:49;;;;;;;4.95;2.20;;;;;;;;;;4859876;29;20038;-62
2022/06/17 11:24:40;;;;;;;4.60;2.10;;;;;;;;;;4860086;29;20045;-63
2022/06/17 11:27:42;;;;;;;4.28;2.25;;;;;;;;;;4857953;29;20025;-62
2022/06/17 11:30:19;;;;;;;3.65;2.00;;;;;;;;;;4859309;29;20025;-62
2022/06/17 11:32:45;;;;;;;3.15;1.80;;;;;;;;;;4860164;29;20034;-62
2022/06/17 11:35:25;;;;;;;2.88;1.80;;;;;;;;;;4858957;29;20142;-62
2022/06/17 11:37:51;;;;;;;;;;;;;;;;;;4841386;29;20042;-65
2022/06/17 11:40:21;;;;;;;3.40;1.90;;;;;;;;;;4850659;29;19924;-64
2022/06/17 11:42:55;;;;;;;3.83;2.07;;;;;;;;;;4859967;29;20033;-63
2022/06/17 11:45:31;;;;;;;2.47;1.92;;;;;;;;;;4859949;29;20271;-62
2022/06/17 11:48:14;;;;;;;2.45;1.92;;;;;;;;;;4859057;29;20068;-64
2022/06/17 11:50:57;;;;;;;4.22;2.00;;;;;;;;;;4859708;29;20038;-63
2022/06/17 11:53:24;;;;;;;4.93;1.95;;;;;;;;;;4859040;29;20037;-64
2022/06/17 11:55:50;;;;;;;4.25;1.90;;;;;;;;;;4842258;29;20479;-66
2022/06/17 11:58:18;;;;;;;2.10;1.65;;;;;;;;;;4858701;29;20133;-65
2022/06/17 12:00:53;;;;;;;5.70;2.00;;;;;;;;;;4859229;29;20033;-64
2022/06/17 12:03:22;;;;;;;5.55;1.90;;;;;;;;;;4859632;29;20037;-60
2022/06/17 12:05:58;;;;;;;3.25;1.90;;;;;;;;;;4859533;29;20110;-69
2022/06/17 12:08:46;;;;;;;3.95;1.60;;;;;;;;;;4843097;29;20490;-62
2022/06/17 12:11:19;;;;;;;3.72;1.60;;;;;;;;;;4858080;29;20029;-65
2022/06/17 12:13:49;;;;;;;2.33;1.75;;;;;;;;;;4859064;29;20140;-61
2022/06/17 12:16:47;;;;;;;4.07;1.60;;;;;;;;;;4858167;29;20033;-61
2022/06/17 12:19:20;;;;;;;4.78;1.83;;;;;;;;;;4826727;29;20041;-61
2022/06/17 12:22:05;;;;;;;3.47;1.60;;;;;;;;;;4854875;29;20034;-61
2022/06/17 12:24:44;;;;;;;4.25;1.63;;;;;;;;;;4857830;29;20037;-66
2022/06/17 12:27:18;;;;;;;4.50;1.80;;;;;;;;;;4858644;29;20185;-65
2022/06/17 12:29:46;;;;;;;4.10;1.70;;;;;;;;;;4859533;29;20082;-66
2022/06/17 12:32:29;;;;;;;2.47;1.70;;;;;;;;;;4858704;29;20051;-66
2022/06/17 12:35:14;;;;;;;2.55;1.60;;;;;;;;;;4858897;29;20120;-65
2022/06/17 12:37:49;;;;;;;3.80;1.60;;;;;;;;;;4858153;29;20407;-66
2022/06/17 12:40:23;;;;;;;4.50;1.70;;;;;;;;;;4839920;29;20724;-65
2022/06/17 12:42:57;;;;;;;3.67;1.60;;;;;;;;;;4841088;29;20100;-66
2022/06/17 12:45:32;;;;;;;2.72;1.40;;;;;;;;;;4841088;29;20030;-66
2022/06/17 12:48:06;;;;;;;3.10;1.60;;;;;;;;;;4839895;29;20476;-66
2022/06/17 12:53:40;;;;;;;3.58;1.70;;;;;;;;;;4847577;29;20502;-66
2022/06/17 12:56:24;;;;;;;2.72;1.80;;;;;;;;;;4858398;29;20180;-65
2022/06/17 12:59:12;;;;;;;2.60;1.75;;;;;;;;;;4859110;29;20033;-66
2022/06/17 13:01:43;;;;;;;3.65;1.67;;;;;;;;;;4859162;29;20053;-66
2022/06/17 13:04:26;;;;;;;4.10;1.70;;;;;;;;;;4858424;29;20038;-66
2022/06/17 13:07:09;;;;;;;3.15;1.92;;;;;;;;;;4859047;29;20047;-66
2022/06/17 13:13:22;;;;;;;3.28;1.60;;;;;;;;;;4861900;29;20044;-65
2022/06/17 13:15:56;;;;;;;3.35;1.40;;;;;;;;;;4861302;29;20038;-66
2022/06/17 13:18:44;;;;;;;5.47;1.73;;;;;;;;;;4861479;29;20030;-66
2022/06/17 13:21:18;;;;;;;4.10;1.60;;;;;;;;;;4861504;29;20125;-66
2022/06/17 13:24:05;;;;;;;3.80;1.40;;;;;;;;;;4862406;29;20043;-66
2022/06/17 13:26:51;;;;;;;4.45;1.50;;;;;;;;;;4860905;29;20029;-66
2022/06/17 13:29:44;;;;;;;2.97;1.50;;;;;;;;;;4860726;29;20108;-66
2022/06/17 13:32:19;;;;;;;2.53;1.58;;;;;;;;;;4858804;29;20068;-67
2022/06/17 13:34:58;;;;;;;1.98;1.55;;;;;;;;;;4859309;29;20044;-63
2022/06/17 13:37:41;;;;;;;3.28;1.40;;;;;;;;;;4857807;29;20078;-62
2022/06/17 13:40:15;;;;;;;1.50;1.30;;;;;;;;;;4859176;29;20125;-62
2022/06/17 13:42:41;;;;;;;5.10;1.52;;;;;;;;;;4861679;29;20081;-61
2022/06/17 13:45:24;;;;;;;5.28;1.55;;;;;;;;;;4860112;29;20088;-61
2022/06/17 13:48:08;;;;;;;2.88;1.50;;;;;;;;;;4859574;29;20503;-61
2022/06/17 13:50:53;;;;;;;2.35;1.60;;;;;;;;;;4860110;29;20040;-62
2022/06/17 13:53:41;;;;;;;3.80;1.40;;;;;;;;;;4861317;29;20042;-61
2022/06/17 13:56:09;;;;;;;2.30;1.73;;;;;;;;;;4852864;29;20041;-61
2022/06/17 13:58:58;;;;;;;5.57;1.60;;;;;;;;;;4859763;29;20042;-61
2022/06/17 14:01:30;;;;;;;4.00;1.73;;;;;;;;;;4861145;29;20057;-61
2022/06/17 14:03:58;;;;;;;3.17;1.83;;;;;;;;;;4860874;29;20118;-61
2022/06/17 14:06:29;;;;;;;5.57;1.83;;;;;;;;;;4861042;29;20113;-61
2022/06/17 14:09:03;;;;;;;4.07;1.60;;;;;;;;;;4860846;29;20383;-62
2022/06/17 14:11:41;;;;;;;4.70;1.50;;;;;;;;;;4859223;29;20040;-61
2022/06/17 14:14:19;;;;;;;3.28;1.60;;;;;;;;;;4853008;29;20058;-62
2022/06/17 14:17:03;;;;;;;2.65;1.60;;;;;;;;;;4860000;29;20113;-62
2022/06/17 14:19:44;;;;;;;5.75;1.60;;;;;;;;;;4860297;29;20045;-62
2022/06/17 14:22:20;;;;;;;2.45;1.65;;;;;;;;;;4858531;29;20045;-62
2022/06/17 14:24:46;;;;;;;5.97;1.80;;;;;;;;;;4860155;29;20470;-62
2022/06/17 14:27:11;;;;;;;3.40;1.70;;;;;;;;;;4859313;29;20120;-61
2022/06/17 14:29:37;;;;;;;3.80;1.75;;;;;;;;;;4864909;29;20044;-61
2022/06/17 14:32:17;;;;;;;3.05;1.70;;;;;;;;;;4856249;29;20117;-63
2022/06/17 14:34:50;;;;;;;2.67;1.70;;;;;;;;;;4861398;29;20134;-61
2022/06/17 14:37:36;;;;;;;3.28;1.60;;;;;;;;;;4845462;29;20316;-62
2022/06/17 14:40:28;;;;;;;2.75;1.80;;;;;;;;;;4859830;29;20040;-63
2022/06/17 14:43:17;;;;;;;4.00;1.80;;;;;;;;;;4855868;29;20029;-61
2022/06/17 14:46:00;;;;;;;2.38;1.70;;;;;;;;;;4858848;29;20479;-61
2022/06/17 14:48:38;;;;;;;2.70;1.80;;;;;;;;;;4858492;29;20041;-61
2022/06/17 14:51:35;;;;;;;3.63;1.92;;;;;;;;;;4858608;29;20037;-67
2022/06/17 14:54:10;;;;;;;6.68;1.75;;;;;;;;;;4852665;29;20090;-63
2022/06/17 14:57:01;;;;;;;4.57;1.73;;;;;;;;;;4860660;29;20065;-61
2022/06/17 14:59:34;;;;;;;5.20;1.83;;;;;;;;;;4853179;29;20041;-62
2022/06/17 15:02:08;;;;;;;3.72;1.70;;;;;;;;;;4857468;29;20415;-62
2022/06/17 15:04:53;;;;;;;5.20;1.70;;;;;;;;;;4846332;29;20030;-61
2022/06/17 15:07:41;;;;;;;5.82;1.65;;;;;;;;;;4856964;29;20042;-62
2022/06/17 15:10:28;;;;;;;2.42;1.83;;;;;;;;;;4856214;29;20044;-61
2022/06/17 15:16:05;;;;;;;3.40;1.63;;;;;;;;;;4859334;29;20090;-63
2022/06/17 15:18:35;;;;;;;3.28;1.90;;;;;;;;;;4859413;29;20033;-61
2022/06/17 15:21:03;;;;;;;5.97;1.80;;;;;;;;;;4860201;29;20079;-63
2022/06/17 15:23:31;;;;;;;2.90;1.60;;;;;;;;;;4857859;29;20040;-61
2022/06/17 15:26:14;;;;;;;3.83;1.98;;;;;;;;;;4855466;29;20456;-60
2022/06/17 15:29:14;;;;;;;2.42;1.80;;;;;;;;;;4841961;29;20105;-60
2022/06/17 15:31:41;;;;;;;3.75;1.77;;;;;;;;;;4848862;29;20050;-60
2022/06/17 15:34:14;;;;;;;3.60;1.80;;;;;;;;;;4858605;29;20128;-63
2022/06/17 15:36:40;;;;;;;2.92;1.80;;;;;;;;;;4854533;29;20550;-61
2022/06/17 15:39:42;;;;;;;3.38;1.85;;;;;;;;;;4855054;29;20037;-64
2022/06/17 15:42:26;;;;;;;2.47;1.73;;;;;;;;;;4838093;29;20423;-61